sensor_id;sensor_type;location;lat;lon;timestamp;temperature;humidity
51719;DHT22;37795;53.236;5.704;2023-09-19T00:02:03;15.00;69.30
51719;DHT22;37795;53.236;5.704;2023-09-19T00:04:33;15.10;67.90
51719;DHT22;37795;53.236;5.704;2023-09-19T00:06:59;15.20;66.30
51719;DHT22;37795;53.236;5.704;2023-09-19T00:09:25;15.20;66.20
51719;DHT22;37795;53.236;5.704;2023-09-19T00:11:53;15.20;66.30
51719;DHT22;37795;53.236;5.704;2023-09-19T00:14:19;15.10;67.10
51719;DHT22;37795;53.236;5.704;2023-09-19T00:16:45;15.10;67.30
51719;DHT22;37795;53.236;5.704;2023-09-19T00:19:12;15.00;67.80
51719;DHT22;37795;53.236;5.704;2023-09-19T00:21:38;15.10;68.10
51719;DHT22;37795;53.236;5.704;2023-09-19T00:24:06;15.00;68.10
51719;DHT22;37795;53.236;5.704;2023-09-19T00:26:32;15.00;68.00
51719;DHT22;37795;53.236;5.704;2023-09-19T00:29:00;15.00;68.60
51719;DHT22;37795;53.236;5.704;2023-09-19T00:31:34;15.00;68.00
51719;DHT22;37795;53.236;5.704;2023-09-19T00:34:00;15.00;67.60
51719;DHT22;37795;53.236;5.704;2023-09-19T00:36:29;14.90;67.40
51719;DHT22;37795;53.236;5.704;2023-09-19T00:38:55;14.90;67.50
51719;DHT22;37795;53.236;5.704;2023-09-19T00:41:21;14.80;67.10
51719;DHT22;37795;53.236;5.704;2023-09-19T00:43:46;14.80;66.60
51719;DHT22;37795;53.236;5.704;2023-09-19T00:46:16;14.80;66.40
51719;DHT22;37795;53.236;5.704;2023-09-19T00:48:42;14.70;66.60
51719;DHT22;37795;53.236;5.704;2023-09-19T00:51:12;14.70;66.80
51719;DHT22;37795;53.236;5.704;2023-09-19T00:53:39;14.70;66.60
51719;DHT22;37795;53.236;5.704;2023-09-19T00:56:11;14.60;66.60
51719;DHT22;37795;53.236;5.704;2023-09-19T00:58:37;14.70;65.90
51719;DHT22;37795;53.236;5.704;2023-09-19T01:01:04;14.70;65.90
51719;DHT22;37795;53.236;5.704;2023-09-19T01:03:33;14.60;66.90
51719;DHT22;37795;53.236;5.704;2023-09-19T01:05:59;14.60;67.40
51719;DHT22;37795;53.236;5.704;2023-09-19T01:08:26;14.60;67.40
51719;DHT22;37795;53.236;5.704;2023-09-19T01:11:14;14.60;67.30
51719;DHT22;37795;53.236;5.704;2023-09-19T01:13:52;14.70;67.10
51719;DHT22;37795;53.236;5.704;2023-09-19T01:22:09;14.70;66.80
51719;DHT22;37795;53.236;5.704;2023-09-19T01:24:55;14.70;66.60
51719;DHT22;37795;53.236;5.704;2023-09-19T01:30:36;14.70;67.10
51719;DHT22;37795;53.236;5.704;2023-09-19T01:33:05;14.80;66.70
51719;DHT22;37795;53.236;5.704;2023-09-19T01:35:31;14.80;66.50
51719;DHT22;37795;53.236;5.704;2023-09-19T01:37:59;14.80;65.90
51719;DHT22;37795;53.236;5.704;2023-09-19T01:40:25;14.80;65.50
51719;DHT22;37795;53.236;5.704;2023-09-19T01:51:21;14.80;66.10
51719;DHT22;37795;53.236;5.704;2023-09-19T01:54:03;14.70;65.90
51719;DHT22;37795;53.236;5.704;2023-09-19T01:56:40;14.70;65.70
51719;DHT22;37795;53.236;5.704;2023-09-19T01:59:13;14.70;65.60
51719;DHT22;37795;53.236;5.704;2023-09-19T02:01:39;14.70;65.80
51719;DHT22;37795;53.236;5.704;2023-09-19T02:04:07;14.70;65.80
51719;DHT22;37795;53.236;5.704;2023-09-19T02:06:33;14.80;65.40
51719;DHT22;37795;53.236;5.704;2023-09-19T02:08:59;14.80;65.50
51719;DHT22;37795;53.236;5.704;2023-09-19T02:11:25;14.70;65.90
51719;DHT22;37795;53.236;5.704;2023-09-19T02:13:51;14.80;62.90
51719;DHT22;37795;53.236;5.704;2023-09-19T02:16:20;14.90;62.10
51719;DHT22;37795;53.236;5.704;2023-09-19T02:18:48;14.90;62.50
51719;DHT22;37795;53.236;5.704;2023-09-19T02:21:15;14.90;63.10
51719;DHT22;37795;53.236;5.704;2023-09-19T02:23:43;14.90;63.40
51719;DHT22;37795;53.236;5.704;2023-09-19T02:26:09;14.90;64.90
51719;DHT22;37795;53.236;5.704;2023-09-19T02:28:34;14.90;65.10
51719;DHT22;37795;53.236;5.704;2023-09-19T02:31:01;14.80;66.00
51719;DHT22;37795;53.236;5.704;2023-09-19T02:33:28;14.90;65.90
51719;DHT22;37795;53.236;5.704;2023-09-19T02:35:58;14.90;66.10
51719;DHT22;37795;53.236;5.704;2023-09-19T02:38:25;14.90;66.10
51719;DHT22;37795;53.236;5.704;2023-09-19T02:40:52;14.80;66.20
51719;DHT22;37795;53.236;5.704;2023-09-19T02:43:18;14.80;66.10
51719;DHT22;37795;53.236;5.704;2023-09-19T02:45:45;14.80;66.00
51719;DHT22;37795;53.236;5.704;2023-09-19T02:48:12;14.80;65.70
51719;DHT22;37795;53.236;5.704;2023-09-19T02:50:38;14.70;66.00
51719;DHT22;37795;53.236;5.704;2023-09-19T02:53:05;14.70;65.90
51719;DHT22;37795;53.236;5.704;2023-09-19T02:55:32;14.70;65.80
51719;DHT22;37795;53.236;5.704;2023-09-19T02:57:58;14.60;65.90
51719;DHT22;37795;53.236;5.704;2023-09-19T03:00:24;14.60;65.40
51719;DHT22;37795;53.236;5.704;2023-09-19T03:02:52;14.60;65.10
51719;DHT22;37795;53.236;5.704;2023-09-19T03:05:18;14.60;64.50
51719;DHT22;37795;53.236;5.704;2023-09-19T03:07:44;14.60;64.60
51719;DHT22;37795;53.236;5.704;2023-09-19T03:10:13;14.60;64.70
51719;DHT22;37795;53.236;5.704;2023-09-19T03:12:40;14.60;65.00
51719;DHT22;37795;53.236;5.704;2023-09-19T03:15:06;14.50;65.40
51719;DHT22;37795;53.236;5.704;2023-09-19T03:17:34;14.50;65.60
51719;DHT22;37795;53.236;5.704;2023-09-19T03:20:00;14.60;64.70
51719;DHT22;37795;53.236;5.704;2023-09-19T03:22:29;14.60;64.70
51719;DHT22;37795;53.236;5.704;2023-09-19T03:24:55;14.40;65.30
51719;DHT22;37795;53.236;5.704;2023-09-19T03:27:21;14.50;65.10
51719;DHT22;37795;53.236;5.704;2023-09-19T03:29:49;14.50;65.40
51719;DHT22;37795;53.236;5.704;2023-09-19T03:32:15;14.40;65.90
51719;DHT22;37795;53.236;5.704;2023-09-19T03:34:41;14.40;66.30
51719;DHT22;37795;53.236;5.704;2023-09-19T03:37:11;14.40;66.50
51719;DHT22;37795;53.236;5.704;2023-09-19T03:39:37;14.50;66.70
51719;DHT22;37795;53.236;5.704;2023-09-19T03:42:03;14.50;67.10
51719;DHT22;37795;53.236;5.704;2023-09-19T03:44:30;14.40;67.70
51719;DHT22;37795;53.236;5.704;2023-09-19T03:46:56;14.40;68.00
51719;DHT22;37795;53.236;5.704;2023-09-19T03:49:22;14.40;68.20
51719;DHT22;37795;53.236;5.704;2023-09-19T03:51:48;14.50;67.50
51719;DHT22;37795;53.236;5.704;2023-09-19T03:54:14;14.50;67.20
51719;DHT22;37795;53.236;5.704;2023-09-19T03:56:39;14.50;67.20
51719;DHT22;37795;53.236;5.704;2023-09-19T03:59:05;14.50;67.20
51719;DHT22;37795;53.236;5.704;2023-09-19T04:01:31;14.60;67.30
51719;DHT22;37795;53.236;5.704;2023-09-19T04:03:59;14.60;67.00
51719;DHT22;37795;53.236;5.704;2023-09-19T04:06:36;14.70;66.40
51719;DHT22;37795;53.236;5.704;2023-09-19T04:09:03;14.70;66.10
51719;DHT22;37795;53.236;5.704;2023-09-19T04:11:29;14.70;66.60
51719;DHT22;37795;53.236;5.704;2023-09-19T04:13:56;14.70;67.20
51719;DHT22;37795;53.236;5.704;2023-09-19T04:16:22;14.60;67.10
51719;DHT22;37795;53.236;5.704;2023-09-19T04:18:47;14.70;66.20
51719;DHT22;37795;53.236;5.704;2023-09-19T04:21:13;14.70;65.40
51719;DHT22;37795;53.236;5.704;2023-09-19T04:23:39;14.80;65.30
51719;DHT22;37795;53.236;5.704;2023-09-19T04:26:04;14.70;65.90
51719;DHT22;37795;53.236;5.704;2023-09-19T04:28:31;14.80;65.30
51719;DHT22;37795;53.236;5.704;2023-09-19T04:30:58;14.80;65.20
51719;DHT22;37795;53.236;5.704;2023-09-19T04:33:25;14.70;65.50
51719;DHT22;37795;53.236;5.704;2023-09-19T04:35:50;14.70;65.80
51719;DHT22;37795;53.236;5.704;2023-09-19T04:38:18;14.80;65.60
51719;DHT22;37795;53.236;5.704;2023-09-19T04:40:45;14.70;65.90
51719;DHT22;37795;53.236;5.704;2023-09-19T04:43:10;14.80;65.30
51719;DHT22;37795;53.236;5.704;2023-09-19T04:45:38;14.80;65.20
51719;DHT22;37795;53.236;5.704;2023-09-19T04:48:05;14.80;65.30
51719;DHT22;37795;53.236;5.704;2023-09-19T04:50:32;14.90;64.50
51719;DHT22;37795;53.236;5.704;2023-09-19T04:53:00;14.80;64.90
51719;DHT22;37795;53.236;5.704;2023-09-19T04:55:26;14.90;64.90
51719;DHT22;37795;53.236;5.704;2023-09-19T04:57:53;14.90;65.30
51719;DHT22;37795;53.236;5.704;2023-09-19T05:00:23;14.80;65.60
51719;DHT22;37795;53.236;5.704;2023-09-19T05:02:55;14.80;65.80
51719;DHT22;37795;53.236;5.704;2023-09-19T05:05:22;14.80;66.00
51719;DHT22;37795;53.236;5.704;2023-09-19T05:07:49;14.90;66.10
51719;DHT22;37795;53.236;5.704;2023-09-19T05:10:15;14.90;66.20
51719;DHT22;37795;53.236;5.704;2023-09-19T05:12:42;14.90;65.80
51719;DHT22;37795;53.236;5.704;2023-09-19T05:15:10;14.90;66.20
51719;DHT22;37795;53.236;5.704;2023-09-19T05:17:36;14.90;65.60
51719;DHT22;37795;53.236;5.704;2023-09-19T05:20:05;14.90;66.10
51719;DHT22;37795;53.236;5.704;2023-09-19T05:23:03;14.90;66.10
51719;DHT22;37795;53.236;5.704;2023-09-19T05:25:35;14.80;66.30
51719;DHT22;37795;53.236;5.704;2023-09-19T05:28:08;14.80;66.60
51719;DHT22;37795;53.236;5.704;2023-09-19T05:30:34;14.80;67.10
51719;DHT22;37795;53.236;5.704;2023-09-19T05:33:02;14.80;67.30
51719;DHT22;37795;53.236;5.704;2023-09-19T05:35:28;14.80;67.50
51719;DHT22;37795;53.236;5.704;2023-09-19T05:37:54;14.80;67.70
51719;DHT22;37795;53.236;5.704;2023-09-19T05:40:21;14.80;67.30
51719;DHT22;37795;53.236;5.704;2023-09-19T05:42:47;14.80;67.10
51719;DHT22;37795;53.236;5.704;2023-09-19T05:45:13;14.80;66.80
51719;DHT22;37795;53.236;5.704;2023-09-19T05:47:43;14.80;66.20
51719;DHT22;37795;53.236;5.704;2023-09-19T05:50:11;14.90;66.40
51719;DHT22;37795;53.236;5.704;2023-09-19T05:52:38;14.90;66.30
51719;DHT22;37795;53.236;5.704;2023-09-19T05:55:07;14.90;66.60
51719;DHT22;37795;53.236;5.704;2023-09-19T05:57:37;14.90;66.60
51719;DHT22;37795;53.236;5.704;2023-09-19T06:00:08;14.90;66.10
51719;DHT22;37795;53.236;5.704;2023-09-19T06:02:38;15.00;64.40
51719;DHT22;37795;53.236;5.704;2023-09-19T06:05:06;15.00;64.40
51719;DHT22;37795;53.236;5.704;2023-09-19T06:07:35;15.00;65.00
51719;DHT22;37795;53.236;5.704;2023-09-19T06:10:06;15.00;65.60
51719;DHT22;37795;53.236;5.704;2023-09-19T06:12:44;15.00;65.80
51719;DHT22;37795;53.236;5.704;2023-09-19T06:15:11;15.00;66.00
51719;DHT22;37795;53.236;5.704;2023-09-19T06:17:53;15.10;66.60
51719;DHT22;37795;53.236;5.704;2023-09-19T06:20:22;15.00;68.00
51719;DHT22;37795;53.236;5.704;2023-09-19T06:22:49;14.90;69.00
51719;DHT22;37795;53.236;5.704;2023-09-19T06:25:16;15.00;67.80
51719;DHT22;37795;53.236;5.704;2023-09-19T06:27:54;15.00;67.20
51719;DHT22;37795;53.236;5.704;2023-09-19T06:30:21;15.00;66.60
51719;DHT22;37795;53.236;5.704;2023-09-19T06:32:49;15.10;66.90
51719;DHT22;37795;53.236;5.704;2023-09-19T06:35:16;15.10;66.30
51719;DHT22;37795;53.236;5.704;2023-09-19T06:37:42;15.10;65.70
51719;DHT22;37795;53.236;5.704;2023-09-19T06:40:12;15.20;65.50
51719;DHT22;37795;53.236;5.704;2023-09-19T06:43:00;15.20;65.30
51719;DHT22;37795;53.236;5.704;2023-09-19T06:45:27;15.20;65.50
51719;DHT22;37795;53.236;5.704;2023-09-19T06:54:07;15.50;65.20
51719;DHT22;37795;53.236;5.704;2023-09-19T06:56:33;15.30;65.00
51719;DHT22;37795;53.236;5.704;2023-09-19T06:58:59;15.30;65.60
51719;DHT22;37795;53.236;5.704;2023-09-19T07:01:25;15.40;64.30
51719;DHT22;37795;53.236;5.704;2023-09-19T07:03:51;15.50;63.60
51719;DHT22;37795;53.236;5.704;2023-09-19T07:06:16;15.50;63.20
51719;DHT22;37795;53.236;5.704;2023-09-19T07:08:43;15.50;63.00
51719;DHT22;37795;53.236;5.704;2023-09-19T07:11:10;15.50;63.70
51719;DHT22;37795;53.236;5.704;2023-09-19T07:13:38;15.60;64.00
51719;DHT22;37795;53.236;5.704;2023-09-19T07:16:04;15.50;65.00
51719;DHT22;37795;53.236;5.704;2023-09-19T07:18:30;15.50;65.40
51719;DHT22;37795;53.236;5.704;2023-09-19T07:20:57;15.50;65.40
51719;DHT22;37795;53.236;5.704;2023-09-19T07:23:26;15.60;65.40
51719;DHT22;37795;53.236;5.704;2023-09-19T07:25:56;15.70;64.90
51719;DHT22;37795;53.236;5.704;2023-09-19T07:28:22;15.80;64.70
51719;DHT22;37795;53.236;5.704;2023-09-19T07:30:48;16.10;64.60
51719;DHT22;37795;53.236;5.704;2023-09-19T07:33:14;16.20;64.40
51719;DHT22;37795;53.236;5.704;2023-09-19T07:35:40;16.40;63.40
51719;DHT22;37795;53.236;5.704;2023-09-19T07:38:07;16.50;63.50
51719;DHT22;37795;53.236;5.704;2023-09-19T07:40:33;16.70;63.10
51719;DHT22;37795;53.236;5.704;2023-09-19T07:42:59;16.80;63.20
51719;DHT22;37795;53.236;5.704;2023-09-19T07:45:29;16.80;62.30
51719;DHT22;37795;53.236;5.704;2023-09-19T07:47:55;16.90;62.20
51719;DHT22;37795;53.236;5.704;2023-09-19T07:50:21;17.00;62.50
51719;DHT22;37795;53.236;5.704;2023-09-19T07:52:48;16.90;61.00
51719;DHT22;37795;53.236;5.704;2023-09-19T07:55:18;17.10;61.80
51719;DHT22;37795;53.236;5.704;2023-09-19T07:57:45;17.10;61.30
51719;DHT22;37795;53.236;5.704;2023-09-19T08:00:12;17.00;59.70
51719;DHT22;37795;53.236;5.704;2023-09-19T08:02:39;17.20;61.00
51719;DHT22;37795;53.236;5.704;2023-09-19T08:05:06;17.30;60.60
51719;DHT22;37795;53.236;5.704;2023-09-19T08:07:36;17.20;59.90
51719;DHT22;37795;53.236;5.704;2023-09-19T08:10:05;17.10;59.40
51719;DHT22;37795;53.236;5.704;2023-09-19T08:12:39;17.20;59.10
51719;DHT22;37795;53.236;5.704;2023-09-19T08:15:15;17.40;59.90
51719;DHT22;37795;53.236;5.704;2023-09-19T08:17:41;17.60;59.10
51719;DHT22;37795;53.236;5.704;2023-09-19T08:20:08;17.30;59.30
51719;DHT22;37795;53.236;5.704;2023-09-19T08:22:41;17.10;60.80
51719;DHT22;37795;53.236;5.704;2023-09-19T08:25:07;16.90;61.90
51719;DHT22;37795;53.236;5.704;2023-09-19T08:27:33;16.80;62.60
51719;DHT22;37795;53.236;5.704;2023-09-19T08:30:00;16.80;62.80
51719;DHT22;37795;53.236;5.704;2023-09-19T08:32:25;16.80;63.10
51719;DHT22;37795;53.236;5.704;2023-09-19T08:34:52;17.00;63.40
51719;DHT22;37795;53.236;5.704;2023-09-19T08:37:18;17.20;61.50
51719;DHT22;37795;53.236;5.704;2023-09-19T08:39:44;17.40;61.00
51719;DHT22;37795;53.236;5.704;2023-09-19T08:42:10;17.70;61.50
51719;DHT22;37795;53.236;5.704;2023-09-19T08:44:37;17.70;59.80
51719;DHT22;37795;53.236;5.704;2023-09-19T08:47:15;17.80;60.90
51719;DHT22;37795;53.236;5.704;2023-09-19T08:52:20;17.70;59.60
51719;DHT22;37795;53.236;5.704;2023-09-19T08:54:52;18.00;59.50
51719;DHT22;37795;53.236;5.704;2023-09-19T08:57:19;17.80;59.80
51719;DHT22;37795;53.236;5.704;2023-09-19T08:59:48;18.10;59.20
51719;DHT22;37795;53.236;5.704;2023-09-19T09:02:15;18.10;59.60
51719;DHT22;37795;53.236;5.704;2023-09-19T09:04:43;18.40;58.80
51719;DHT22;37795;53.236;5.704;2023-09-19T09:07:13;18.00;59.10
51719;DHT22;37795;53.236;5.704;2023-09-19T09:09:40;18.30;59.10
51719;DHT22;37795;53.236;5.704;2023-09-19T09:12:13;18.50;58.10
51719;DHT22;37795;53.236;5.704;2023-09-19T09:14:46;18.40;58.30
51719;DHT22;37795;53.236;5.704;2023-09-19T09:17:14;18.70;58.40
51719;DHT22;37795;53.236;5.704;2023-09-19T09:19:40;18.70;57.80
51719;DHT22;37795;53.236;5.704;2023-09-19T09:22:10;18.90;58.40
51719;DHT22;37795;53.236;5.704;2023-09-19T09:24:37;19.70;57.70
51719;DHT22;37795;53.236;5.704;2023-09-19T09:27:05;19.40;57.00
51719;DHT22;37795;53.236;5.704;2023-09-19T09:29:53;19.50;57.20
51719;DHT22;37795;53.236;5.704;2023-09-19T09:32:30;19.70;59.00
51719;DHT22;37795;53.236;5.704;2023-09-19T09:35:00;19.20;58.10
51719;DHT22;37795;53.236;5.704;2023-09-19T09:37:27;19.20;58.20
51719;DHT22;37795;53.236;5.704;2023-09-19T09:39:59;19.30;57.60
51719;DHT22;37795;53.236;5.704;2023-09-19T09:42:43;19.10;59.40
51719;DHT22;37795;53.236;5.704;2023-09-19T09:47:43;18.90;59.60
51719;DHT22;37795;53.236;5.704;2023-09-19T09:50:34;18.80;59.50
51719;DHT22;37795;53.236;5.704;2023-09-19T09:53:39;19.00;59.60
51719;DHT22;37795;53.236;5.704;2023-09-19T09:56:06;19.10;59.70
51719;DHT22;37795;53.236;5.704;2023-09-19T09:58:36;19.10;57.00
51719;DHT22;37795;53.236;5.704;2023-09-19T10:01:04;19.20;58.30
51719;DHT22;37795;53.236;5.704;2023-09-19T10:03:39;18.90;58.10
51719;DHT22;37795;53.236;5.704;2023-09-19T10:06:07;19.20;57.70
51719;DHT22;37795;53.236;5.704;2023-09-19T10:09:08;19.20;57.10
51719;DHT22;37795;53.236;5.704;2023-09-19T10:11:46;19.10;57.60
51719;DHT22;37795;53.236;5.704;2023-09-19T10:14:17;19.30;57.50
51719;DHT22;37795;53.236;5.704;2023-09-19T10:16:47;19.10;58.80
51719;DHT22;37795;53.236;5.704;2023-09-19T10:19:36;19.00;59.10
51719;DHT22;37795;53.236;5.704;2023-09-19T10:22:04;19.30;59.70
51719;DHT22;37795;53.236;5.704;2023-09-19T10:24:33;19.20;59.20
51719;DHT22;37795;53.236;5.704;2023-09-19T10:27:02;19.20;59.40
51719;DHT22;37795;53.236;5.704;2023-09-19T10:29:30;18.90;60.20
51719;DHT22;37795;53.236;5.704;2023-09-19T10:31:58;18.90;60.30
51719;DHT22;37795;53.236;5.704;2023-09-19T10:34:25;18.80;60.20
51719;DHT22;37795;53.236;5.704;2023-09-19T10:36:52;18.80;61.10
51719;DHT22;37795;53.236;5.704;2023-09-19T10:39:19;18.60;61.80
51719;DHT22;37795;53.236;5.704;2023-09-19T10:41:52;18.50;62.40
51719;DHT22;37795;53.236;5.704;2023-09-19T10:44:25;18.50;62.50
51719;DHT22;37795;53.236;5.704;2023-09-19T10:54:11;18.20;67.20
51719;DHT22;37795;53.236;5.704;2023-09-19T10:56:43;17.40;72.20
51719;DHT22;37795;53.236;5.704;2023-09-19T10:59:20;17.10;74.70
51719;DHT22;37795;53.236;5.704;2023-09-19T11:01:53;17.60;74.00
51719;DHT22;37795;53.236;5.704;2023-09-19T11:07:06;18.30;70.50
51719;DHT22;37795;53.236;5.704;2023-09-19T11:09:56;18.20;69.20
51719;DHT22;37795;53.236;5.704;2023-09-19T11:15:09;17.80;69.60
51719;DHT22;37795;53.236;5.704;2023-09-19T11:17:40;17.50;70.90
51719;DHT22;37795;53.236;5.704;2023-09-19T11:20:19;17.30;71.50
51719;DHT22;37795;53.236;5.704;2023-09-19T11:25:41;17.20;72.50
51719;DHT22;37795;53.236;5.704;2023-09-19T11:30:47;17.10;72.90
51719;DHT22;37795;53.236;5.704;2023-09-19T11:33:20;17.20;72.90
51719;DHT22;37795;53.236;5.704;2023-09-19T11:36:08;17.10;71.60
51719;DHT22;37795;53.236;5.704;2023-09-19T11:46:30;16.40;77.60
51719;DHT22;37795;53.236;5.704;2023-09-19T11:49:06;16.40;78.00
51719;DHT22;37795;53.236;5.704;2023-09-19T11:51:42;16.20;78.60
51719;DHT22;37795;53.236;5.704;2023-09-19T11:54:13;16.20;79.80
51719;DHT22;37795;53.236;5.704;2023-09-19T11:56:44;16.10;81.30
51719;DHT22;37795;53.236;5.704;2023-09-19T11:59:11;16.20;81.30
51719;DHT22;37795;53.236;5.704;2023-09-19T12:01:38;16.30;81.00
51719;DHT22;37795;53.236;5.704;2023-09-19T12:04:11;16.30;81.50
51719;DHT22;37795;53.236;5.704;2023-09-19T12:06:37;16.30;81.20
51719;DHT22;37795;53.236;5.704;2023-09-19T12:09:12;16.50;80.80
51719;DHT22;37795;53.236;5.704;2023-09-19T12:11:43;16.70;80.20
51719;DHT22;37795;53.236;5.704;2023-09-19T12:14:20;16.90;79.40
51719;DHT22;37795;53.236;5.704;2023-09-19T12:16:54;17.00;79.20
51719;DHT22;37795;53.236;5.704;2023-09-19T12:19:22;17.00;78.20
51719;DHT22;37795;53.236;5.704;2023-09-19T12:22:15;17.00;77.90
51719;DHT22;37795;53.236;5.704;2023-09-19T12:24:41;17.20;77.30
51719;DHT22;37795;53.236;5.704;2023-09-19T12:27:09;17.60;75.80
51719;DHT22;37795;53.236;5.704;2023-09-19T12:29:46;17.60;76.00
51719;DHT22;37795;53.236;5.704;2023-09-19T12:32:14;17.50;76.40
51719;DHT22;37795;53.236;5.704;2023-09-19T12:34:45;17.40;76.00
51719;DHT22;37795;53.236;5.704;2023-09-19T12:37:15;17.30;75.90
51719;DHT22;37795;53.236;5.704;2023-09-19T12:39:46;17.20;76.70
51719;DHT22;37795;53.236;5.704;2023-09-19T12:42:15;16.90;78.20
51719;DHT22;37795;53.236;5.704;2023-09-19T12:44:42;16.60;79.40
51719;DHT22;37795;53.236;5.704;2023-09-19T12:47:16;16.50;80.00
51719;DHT22;37795;53.236;5.704;2023-09-19T12:50:08;16.40;81.40
51719;DHT22;37795;53.236;5.704;2023-09-19T12:52:43;16.20;81.90
51719;DHT22;37795;53.236;5.704;2023-09-19T12:55:21;16.40;82.70
51719;DHT22;37795;53.236;5.704;2023-09-19T13:00:32;16.30;82.90
51719;DHT22;37795;53.236;5.704;2023-09-19T13:03:30;16.40;82.90
51719;DHT22;37795;53.236;5.704;2023-09-19T13:05:59;16.50;82.30
51719;DHT22;37795;53.236;5.704;2023-09-19T13:08:33;16.70;81.30
51719;DHT22;37795;53.236;5.704;2023-09-19T13:13:26;16.80;81.00
51719;DHT22;37795;53.236;5.704;2023-09-19T13:15:53;17.00;79.70
51719;DHT22;37795;53.236;5.704;2023-09-19T13:18:19;17.00;79.70
51719;DHT22;37795;53.236;5.704;2023-09-19T13:21:06;17.10;79.40
51719;DHT22;37795;53.236;5.704;2023-09-19T13:23:36;17.00;79.10
51719;DHT22;37795;53.236;5.704;2023-09-19T13:26:02;17.00;79.00
51719;DHT22;37795;53.236;5.704;2023-09-19T13:28:30;17.10;78.90
51719;DHT22;37795;53.236;5.704;2023-09-19T13:30:55;17.10;79.20
51719;DHT22;37795;53.236;5.704;2023-09-19T13:33:22;17.10;79.10
51719;DHT22;37795;53.236;5.704;2023-09-19T13:35:48;17.10;79.20
51719;DHT22;37795;53.236;5.704;2023-09-19T13:38:14;17.20;79.00
51719;DHT22;37795;53.236;5.704;2023-09-19T13:40:40;17.20;79.40
51719;DHT22;37795;53.236;5.704;2023-09-19T13:43:07;17.10;79.80
51719;DHT22;37795;53.236;5.704;2023-09-19T13:45:33;17.10;80.50
51719;DHT22;37795;53.236;5.704;2023-09-19T13:47:59;16.90;81.10
51719;DHT22;37795;53.236;5.704;2023-09-19T13:50:25;16.90;81.50
51719;DHT22;37795;53.236;5.704;2023-09-19T13:52:52;17.00;80.70
51719;DHT22;37795;53.236;5.704;2023-09-19T13:55:19;17.10;79.70
51719;DHT22;37795;53.236;5.704;2023-09-19T13:57:48;17.20;79.50
51719;DHT22;37795;53.236;5.704;2023-09-19T14:00:20;17.10;79.70
51719;DHT22;37795;53.236;5.704;2023-09-19T14:02:46;17.10;80.10
51719;DHT22;37795;53.236;5.704;2023-09-19T14:05:14;17.10;80.80
51719;DHT22;37795;53.236;5.704;2023-09-19T14:07:42;17.10;81.20
51719;DHT22;37795;53.236;5.704;2023-09-19T14:10:09;17.10;81.20
51719;DHT22;37795;53.236;5.704;2023-09-19T14:12:39;17.10;80.90
51719;DHT22;37795;53.236;5.704;2023-09-19T14:15:09;17.00;80.90
51719;DHT22;37795;53.236;5.704;2023-09-19T14:17:35;17.00;80.90
51719;DHT22;37795;53.236;5.704;2023-09-19T14:20:01;17.10;80.60
51719;DHT22;37795;53.236;5.704;2023-09-19T14:22:27;17.10;80.30
51719;DHT22;37795;53.236;5.704;2023-09-19T14:24:52;17.10;80.00
51719;DHT22;37795;53.236;5.704;2023-09-19T14:27:18;17.10;80.60
51719;DHT22;37795;53.236;5.704;2023-09-19T14:29:44;17.10;80.20
51719;DHT22;37795;53.236;5.704;2023-09-19T14:32:10;17.20;80.00
51719;DHT22;37795;53.236;5.704;2023-09-19T14:34:36;17.30;79.50
51719;DHT22;37795;53.236;5.704;2023-09-19T14:37:07;17.40;79.30
51719;DHT22;37795;53.236;5.704;2023-09-19T14:39:33;17.40;79.00
51719;DHT22;37795;53.236;5.704;2023-09-19T14:41:59;17.50;79.10
51719;DHT22;37795;53.236;5.704;2023-09-19T14:44:24;17.50;79.10
51719;DHT22;37795;53.236;5.704;2023-09-19T14:46:50;17.50;79.00
51719;DHT22;37795;53.236;5.704;2023-09-19T14:49:16;17.50;79.10
51719;DHT22;37795;53.236;5.704;2023-09-19T14:51:42;17.50;79.30
51719;DHT22;37795;53.236;5.704;2023-09-19T14:54:13;17.50;79.40
51719;DHT22;37795;53.236;5.704;2023-09-19T14:56:38;17.50;79.30
51719;DHT22;37795;53.236;5.704;2023-09-19T14:59:05;17.50;79.10
51719;DHT22;37795;53.236;5.704;2023-09-19T15:01:32;17.50;79.40
51719;DHT22;37795;53.236;5.704;2023-09-19T15:03:58;17.50;79.10
51719;DHT22;37795;53.236;5.704;2023-09-19T15:06:26;17.50;78.80
51719;DHT22;37795;53.236;5.704;2023-09-19T15:08:52;17.50;78.50
51719;DHT22;37795;53.236;5.704;2023-09-19T15:11:18;17.60;78.40
51719;DHT22;37795;53.236;5.704;2023-09-19T15:13:45;17.60;78.40
51719;DHT22;37795;53.236;5.704;2023-09-19T15:16:11;17.70;77.90
51719;DHT22;37795;53.236;5.704;2023-09-19T15:18:40;17.70;78.00
51719;DHT22;37795;53.236;5.704;2023-09-19T15:21:08;17.70;78.10
51719;DHT22;37795;53.236;5.704;2023-09-19T15:23:35;17.70;78.40
51719;DHT22;37795;53.236;5.704;2023-09-19T15:26:03;17.60;78.80
51719;DHT22;37795;53.236;5.704;2023-09-19T15:28:29;17.50;79.20
51719;DHT22;37795;53.236;5.704;2023-09-19T15:33:29;17.40;79.90
51719;DHT22;37795;53.236;5.704;2023-09-19T15:36:11;17.30;80.00
51719;DHT22;37795;53.236;5.704;2023-09-19T15:41:19;17.30;80.90
51719;DHT22;37795;53.236;5.704;2023-09-19T15:43:45;17.30;81.30
51719;DHT22;37795;53.236;5.704;2023-09-19T15:46:11;17.20;81.40
51719;DHT22;37795;53.236;5.704;2023-09-19T15:48:37;17.30;81.90
51719;DHT22;37795;53.236;5.704;2023-09-19T15:51:03;17.20;82.20
51719;DHT22;37795;53.236;5.704;2023-09-19T15:53:50;17.20;82.20
51719;DHT22;37795;53.236;5.704;2023-09-19T15:56:17;17.20;82.60
51719;DHT22;37795;53.236;5.704;2023-09-19T15:58:47;17.10;82.70
51719;DHT22;37795;53.236;5.704;2023-09-19T16:01:14;17.00;83.50
51719;DHT22;37795;53.236;5.704;2023-09-19T16:03:49;17.00;83.90
51719;DHT22;37795;53.236;5.704;2023-09-19T16:06:17;16.90;84.30
51719;DHT22;37795;53.236;5.704;2023-09-19T16:08:45;16.90;84.90
51719;DHT22;37795;53.236;5.704;2023-09-19T16:11:12;16.80;85.10
51719;DHT22;37795;53.236;5.704;2023-09-19T16:13:39;16.80;85.10
51719;DHT22;37795;53.236;5.704;2023-09-19T16:16:07;16.80;85.50
51719;DHT22;37795;53.236;5.704;2023-09-19T16:18:34;16.80;85.80
51719;DHT22;37795;53.236;5.704;2023-09-19T16:21:03;16.70;85.90
51719;DHT22;37795;53.236;5.704;2023-09-19T16:23:30;16.80;86.20
51719;DHT22;37795;53.236;5.704;2023-09-19T16:26:17;16.70;86.20
51719;DHT22;37795;53.236;5.704;2023-09-19T16:28:45;16.70;86.30
51719;DHT22;37795;53.236;5.704;2023-09-19T16:31:11;16.70;86.40
51719;DHT22;37795;53.236;5.704;2023-09-19T16:33:39;16.70;86.50
51719;DHT22;37795;53.236;5.704;2023-09-19T16:36:09;16.60;86.50
51719;DHT22;37795;53.236;5.704;2023-09-19T16:38:36;16.60;86.50
51719;DHT22;37795;53.236;5.704;2023-09-19T16:41:06;16.60;86.60
51719;DHT22;37795;53.236;5.704;2023-09-19T16:43:32;16.60;86.60
51719;DHT22;37795;53.236;5.704;2023-09-19T16:46:03;16.60;86.60
51719;DHT22;37795;53.236;5.704;2023-09-19T16:48:30;16.60;86.80